sensor_id;sensor_type;location;lat;lon;timestamp;temperature;humidity
84393;DHT22;74592;48.846;2.358;2024-02-14T00:01:52;12.50;61.30
84393;DHT22;74592;48.846;2.358;2024-02-14T00:04:18;12.50;61.60
84393;DHT22;74592;48.846;2.358;2024-02-14T00:06:44;12.60;61.50
84393;DHT22;74592;48.846;2.358;2024-02-14T00:09:10;12.60;61.30
84393;DHT22;74592;48.846;2.358;2024-02-14T00:11:37;12.60;61.30
84393;DHT22;74592;48.846;2.358;2024-02-14T00:14:02;12.60;61.30
84393;DHT22;74592;48.846;2.358;2024-02-14T00:16:28;12.60;61.50
84393;DHT22;74592;48.846;2.358;2024-02-14T00:18:57;12.60;61.40
84393;DHT22;74592;48.846;2.358;2024-02-14T00:21:23;12.60;61.30
84393;DHT22;74592;48.846;2.358;2024-02-14T00:23:50;12.60;61.30
84393;DHT22;74592;48.846;2.358;2024-02-14T00:26:16;12.60;61.60
84393;DHT22;74592;48.846;2.358;2024-02-14T00:28:41;12.60;61.70
84393;DHT22;74592;48.846;2.358;2024-02-14T00:31:07;12.60;61.70
84393;DHT22;74592;48.846;2.358;2024-02-14T00:33:33;12.70;61.90
84393;DHT22;74592;48.846;2.358;2024-02-14T00:35:58;12.70;61.90
84393;DHT22;74592;48.846;2.358;2024-02-14T00:38:24;12.70;61.80
84393;DHT22;74592;48.846;2.358;2024-02-14T00:40:50;12.80;61.60
84393;DHT22;74592;48.846;2.358;2024-02-14T00:43:15;12.80;61.40
84393;DHT22;74592;48.846;2.358;2024-02-14T00:45:41;12.80;61.70
84393;DHT22;74592;48.846;2.358;2024-02-14T00:48:07;12.80;61.80
84393;DHT22;74592;48.846;2.358;2024-02-14T00:50:33;12.80;61.90
84393;DHT22;74592;48.846;2.358;2024-02-14T00:53:03;12.80;61.80
84393;DHT22;74592;48.846;2.358;2024-02-14T00:55:28;12.80;61.90
84393;DHT22;74592;48.846;2.358;2024-02-14T00:57:54;12.80;61.90
84393;DHT22;74592;48.846;2.358;2024-02-14T01:00:20;12.80;62.20
84393;DHT22;74592;48.846;2.358;2024-02-14T01:02:45;12.90;62.30
84393;DHT22;74592;48.846;2.358;2024-02-14T01:05:11;12.80;62.80
84393;DHT22;74592;48.846;2.358;2024-02-14T01:07:37;12.80;62.70
84393;DHT22;74592;48.846;2.358;2024-02-14T01:10:03;12.80;62.80
84393;DHT22;74592;48.846;2.358;2024-02-14T01:12:28;12.80;63.00
84393;DHT22;74592;48.846;2.358;2024-02-14T01:14:57;12.80;63.00
84393;DHT22;74592;48.846;2.358;2024-02-14T01:17:23;12.80;63.10
84393;DHT22;74592;48.846;2.358;2024-02-14T01:19:50;12.80;63.20
84393;DHT22;74592;48.846;2.358;2024-02-14T01:22:16;12.80;63.20
84393;DHT22;74592;48.846;2.358;2024-02-14T01:24:45;12.80;63.30
84393;DHT22;74592;48.846;2.358;2024-02-14T01:27:11;12.80;63.40
84393;DHT22;74592;48.846;2.358;2024-02-14T01:29:36;12.80;63.20
84393;DHT22;74592;48.846;2.358;2024-02-14T01:32:02;12.80;63.40
84393;DHT22;74592;48.846;2.358;2024-02-14T01:34:29;12.80;63.30
84393;DHT22;74592;48.846;2.358;2024-02-14T01:36:55;12.90;63.50
84393;DHT22;74592;48.846;2.358;2024-02-14T01:39:20;12.80;63.70
84393;DHT22;74592;48.846;2.358;2024-02-14T01:41:48;12.80;63.80
84393;DHT22;74592;48.846;2.358;2024-02-14T01:44:17;12.80;63.60
84393;DHT22;74592;48.846;2.358;2024-02-14T01:46:43;12.80;63.40
84393;DHT22;74592;48.846;2.358;2024-02-14T01:49:10;12.80;63.30
84393;DHT22;74592;48.846;2.358;2024-02-14T01:51:38;12.90;63.60
84393;DHT22;74592;48.846;2.358;2024-02-14T01:54:04;12.90;63.60
84393;DHT22;74592;48.846;2.358;2024-02-14T01:56:31;12.80;63.40
84393;DHT22;74592;48.846;2.358;2024-02-14T01:58:59;12.80;63.60
84393;DHT22;74592;48.846;2.358;2024-02-14T02:01:26;12.80;63.60
84393;DHT22;74592;48.846;2.358;2024-02-14T02:03:52;12.90;63.70
84393;DHT22;74592;48.846;2.358;2024-02-14T02:06:18;12.80;63.70
84393;DHT22;74592;48.846;2.358;2024-02-14T02:08:44;12.80;63.90
84393;DHT22;74592;48.846;2.358;2024-02-14T02:11:10;12.80;63.80
84393;DHT22;74592;48.846;2.358;2024-02-14T02:13:36;12.80;63.70
84393;DHT22;74592;48.846;2.358;2024-02-14T02:16:05;12.80;64.00
84393;DHT22;74592;48.846;2.358;2024-02-14T02:18:32;12.90;64.00
84393;DHT22;74592;48.846;2.358;2024-02-14T02:20:57;12.80;64.30
84393;DHT22;74592;48.846;2.358;2024-02-14T02:23:23;12.80;64.30
84393;DHT22;74592;48.846;2.358;2024-02-14T02:25:48;12.80;64.40
84393;DHT22;74592;48.846;2.358;2024-02-14T02:28:16;12.90;64.50
84393;DHT22;74592;48.846;2.358;2024-02-14T02:30:41;12.90;64.40
84393;DHT22;74592;48.846;2.358;2024-02-14T02:33:07;12.90;64.60
84393;DHT22;74592;48.846;2.358;2024-02-14T02:35:34;12.90;64.40
84393;DHT22;74592;48.846;2.358;2024-02-14T02:38:00;12.90;64.40
84393;DHT22;74592;48.846;2.358;2024-02-14T02:40:25;13.00;64.40
84393;DHT22;74592;48.846;2.358;2024-02-14T02:42:53;12.90;64.40
84393;DHT22;74592;48.846;2.358;2024-02-14T02:45:18;13.00;64.50
84393;DHT22;74592;48.846;2.358;2024-02-14T02:47:44;13.00;64.40
84393;DHT22;74592;48.846;2.358;2024-02-14T02:50:10;13.00;64.40
84393;DHT22;74592;48.846;2.358;2024-02-14T02:52:36;13.00;64.40
84393;DHT22;74592;48.846;2.358;2024-02-14T02:55:01;13.00;64.60
84393;DHT22;74592;48.846;2.358;2024-02-14T02:57:30;13.00;64.80
84393;DHT22;74592;48.846;2.358;2024-02-14T02:59:57;13.00;65.00
84393;DHT22;74592;48.846;2.358;2024-02-14T03:02:23;13.00;65.90
84393;DHT22;74592;48.846;2.358;2024-02-14T03:04:50;13.00;65.10
84393;DHT22;74592;48.846;2.358;2024-02-14T03:07:16;13.00;65.20
84393;DHT22;74592;48.846;2.358;2024-02-14T03:09:42;13.00;65.40
84393;DHT22;74592;48.846;2.358;2024-02-14T03:12:09;13.10;65.10
84393;DHT22;74592;48.846;2.358;2024-02-14T03:14:35;13.10;65.00
84393;DHT22;74592;48.846;2.358;2024-02-14T03:17:05;13.10;65.10
84393;DHT22;74592;48.846;2.358;2024-02-14T03:19:30;13.10;65.10
84393;DHT22;74592;48.846;2.358;2024-02-14T03:21:56;13.00;65.20
84393;DHT22;74592;48.846;2.358;2024-02-14T03:24:25;13.00;65.30
84393;DHT22;74592;48.846;2.358;2024-02-14T03:26:52;13.00;65.90
84393;DHT22;74592;48.846;2.358;2024-02-14T03:29:19;12.90;66.00
84393;DHT22;74592;48.846;2.358;2024-02-14T03:31:46;12.90;66.00
84393;DHT22;74592;48.846;2.358;2024-02-14T03:34:12;12.90;66.30
84393;DHT22;74592;48.846;2.358;2024-02-14T03:36:38;12.90;66.40
84393;DHT22;74592;48.846;2.358;2024-02-14T03:39:04;12.90;66.10
84393;DHT22;74592;48.846;2.358;2024-02-14T03:41:31;12.90;66.20
84393;DHT22;74592;48.846;2.358;2024-02-14T03:43:57;12.90;66.40
84393;DHT22;74592;48.846;2.358;2024-02-14T03:46:26;12.90;66.20
84393;DHT22;74592;48.846;2.358;2024-02-14T03:48:52;13.00;66.20
84393;DHT22;74592;48.846;2.358;2024-02-14T03:51:18;13.00;65.90
84393;DHT22;74592;48.846;2.358;2024-02-14T03:53:45;13.00;66.10
84393;DHT22;74592;48.846;2.358;2024-02-14T03:56:11;13.00;65.80
84393;DHT22;74592;48.846;2.358;2024-02-14T03:58:38;13.00;66.20
84393;DHT22;74592;48.846;2.358;2024-02-14T04:01:04;13.00;66.10
84393;DHT22;74592;48.846;2.358;2024-02-14T04:03:30;13.00;66.10
84393;DHT22;74592;48.846;2.358;2024-02-14T04:05:55;13.00;66.10
84393;DHT22;74592;48.846;2.358;2024-02-14T04:08:21;13.00;66.40
84393;DHT22;74592;48.846;2.358;2024-02-14T04:10:47;13.00;66.70
84393;DHT22;74592;48.846;2.358;2024-02-14T04:13:15;13.00;66.80
84393;DHT22;74592;48.846;2.358;2024-02-14T04:15:41;13.00;66.60
84393;DHT22;74592;48.846;2.358;2024-02-14T04:18:08;12.90;66.70
84393;DHT22;74592;48.846;2.358;2024-02-14T04:20:34;12.90;66.90
84393;DHT22;74592;48.846;2.358;2024-02-14T04:23:00;12.90;66.80
84393;DHT22;74592;48.846;2.358;2024-02-14T04:25:26;12.90;66.80
84393;DHT22;74592;48.846;2.358;2024-02-14T04:27:51;12.90;66.80
84393;DHT22;74592;48.846;2.358;2024-02-14T04:30:17;13.00;66.80
84393;DHT22;74592;48.846;2.358;2024-02-14T04:32:43;13.00;66.80
84393;DHT22;74592;48.846;2.358;2024-02-14T04:35:09;13.00;66.60
84393;DHT22;74592;48.846;2.358;2024-02-14T04:37:35;13.00;66.90
84393;DHT22;74592;48.846;2.358;2024-02-14T04:40:02;13.00;67.00
84393;DHT22;74592;48.846;2.358;2024-02-14T04:42:29;13.00;66.90
84393;DHT22;74592;48.846;2.358;2024-02-14T04:44:55;13.00;67.20
84393;DHT22;74592;48.846;2.358;2024-02-14T04:47:21;13.00;67.30
84393;DHT22;74592;48.846;2.358;2024-02-14T04:49:47;13.00;67.40
84393;DHT22;74592;48.846;2.358;2024-02-14T04:52:12;13.00;67.60
84393;DHT22;74592;48.846;2.358;2024-02-14T04:54:38;13.00;67.70
84393;DHT22;74592;48.846;2.358;2024-02-14T04:57:03;12.90;68.00
84393;DHT22;74592;48.846;2.358;2024-02-14T04:59:30;12.90;68.20
84393;DHT22;74592;48.846;2.358;2024-02-14T05:01:55;12.90;68.30
84393;DHT22;74592;48.846;2.358;2024-02-14T05:04:22;12.90;68.30
84393;DHT22;74592;48.846;2.358;2024-02-14T05:06:48;12.90;68.30
84393;DHT22;74592;48.846;2.358;2024-02-14T05:09:15;12.90;68.40
84393;DHT22;74592;48.846;2.358;2024-02-14T05:11:41;13.00;68.40
84393;DHT22;74592;48.846;2.358;2024-02-14T05:14:07;13.00;68.10
84393;DHT22;74592;48.846;2.358;2024-02-14T05:16:32;13.00;68.20
84393;DHT22;74592;48.846;2.358;2024-02-14T05:18:58;13.00;68.30
84393;DHT22;74592;48.846;2.358;2024-02-14T05:21:24;13.00;68.20
84393;DHT22;74592;48.846;2.358;2024-02-14T05:23:49;13.10;68.30
84393;DHT22;74592;48.846;2.358;2024-02-14T05:26:16;13.10;68.20
84393;DHT22;74592;48.846;2.358;2024-02-14T05:28:41;13.10;67.80
84393;DHT22;74592;48.846;2.358;2024-02-14T05:31:07;13.10;68.40
84393;DHT22;74592;48.846;2.358;2024-02-14T05:33:33;13.10;68.50
84393;DHT22;74592;48.846;2.358;2024-02-14T05:35:58;13.00;68.60
84393;DHT22;74592;48.846;2.358;2024-02-14T05:38:24;13.10;68.60
84393;DHT22;74592;48.846;2.358;2024-02-14T05:40:50;13.10;68.40
84393;DHT22;74592;48.846;2.358;2024-02-14T05:43:16;13.10;68.50
84393;DHT22;74592;48.846;2.358;2024-02-14T05:45:43;13.10;68.30
84393;DHT22;74592;48.846;2.358;2024-02-14T05:48:09;13.00;68.50
84393;DHT22;74592;48.846;2.358;2024-02-14T05:50:35;13.10;68.30
84393;DHT22;74592;48.846;2.358;2024-02-14T05:53:02;13.10;68.70
84393;DHT22;74592;48.846;2.358;2024-02-14T05:55:28;13.10;68.70
84393;DHT22;74592;48.846;2.358;2024-02-14T05:57:54;13.10;68.70
84393;DHT22;74592;48.846;2.358;2024-02-14T06:00:20;13.20;68.60
84393;DHT22;74592;48.846;2.358;2024-02-14T06:02:47;13.10;68.70
84393;DHT22;74592;48.846;2.358;2024-02-14T06:05:13;13.20;68.60
84393;DHT22;74592;48.846;2.358;2024-02-14T06:07:41;13.10;69.20
84393;DHT22;74592;48.846;2.358;2024-02-14T06:10:08;13.10;69.00
84393;DHT22;74592;48.846;2.358;2024-02-14T06:12:34;13.10;69.10
84393;DHT22;74592;48.846;2.358;2024-02-14T06:15:03;13.10;69.00
84393;DHT22;74592;48.846;2.358;2024-02-14T06:17:29;13.10;69.20
84393;DHT22;74592;48.846;2.358;2024-02-14T06:19:55;13.10;69.10
84393;DHT22;74592;48.846;2.358;2024-02-14T06:22:22;13.10;69.30
84393;DHT22;74592;48.846;2.358;2024-02-14T06:24:47;13.10;69.40
84393;DHT22;74592;48.846;2.358;2024-02-14T06:27:16;13.20;69.30
84393;DHT22;74592;48.846;2.358;2024-02-14T06:29:42;13.10;69.40
84393;DHT22;74592;48.846;2.358;2024-02-14T06:32:08;13.10;69.70
84393;DHT22;74592;48.846;2.358;2024-02-14T06:34:34;13.10;69.60
84393;DHT22;74592;48.846;2.358;2024-02-14T06:36:59;13.20;69.70
84393;DHT22;74592;48.846;2.358;2024-02-14T06:39:25;13.20;69.40
84393;DHT22;74592;48.846;2.358;2024-02-14T06:41:50;13.20;69.70
84393;DHT22;74592;48.846;2.358;2024-02-14T06:44:16;13.10;69.90
84393;DHT22;74592;48.846;2.358;2024-02-14T06:46:44;13.20;69.90
84393;DHT22;74592;48.846;2.358;2024-02-14T06:49:09;13.20;69.70
84393;DHT22;74592;48.846;2.358;2024-02-14T06:51:35;13.20;69.70
84393;DHT22;74592;48.846;2.358;2024-02-14T06:54:01;13.30;69.70
84393;DHT22;74592;48.846;2.358;2024-02-14T06:56:26;13.30;69.80
84393;DHT22;74592;48.846;2.358;2024-02-14T06:58:52;13.30;69.70
84393;DHT22;74592;48.846;2.358;2024-02-14T07:01:25;13.30;69.50
84393;DHT22;74592;48.846;2.358;2024-02-14T07:03:51;13.40;70.10
84393;DHT22;74592;48.846;2.358;2024-02-14T07:06:17;13.40;69.10
84393;DHT22;74592;48.846;2.358;2024-02-14T07:08:43;13.40;69.20
84393;DHT22;74592;48.846;2.358;2024-02-14T07:11:09;13.40;69.10
84393;DHT22;74592;48.846;2.358;2024-02-14T07:13:34;13.40;69.10
84393;DHT22;74592;48.846;2.358;2024-02-14T07:16:00;13.40;68.90
84393;DHT22;74592;48.846;2.358;2024-02-14T07:18:26;13.40;69.10
84393;DHT22;74592;48.846;2.358;2024-02-14T07:20:52;13.50;69.50
84393;DHT22;74592;48.846;2.358;2024-02-14T07:23:18;13.50;69.70
84393;DHT22;74592;48.846;2.358;2024-02-14T07:25:44;13.40;69.50
84393;DHT22;74592;48.846;2.358;2024-02-14T07:28:10;13.50;69.70
84393;DHT22;74592;48.846;2.358;2024-02-14T07:30:36;13.40;69.60
84393;DHT22;74592;48.846;2.358;2024-02-14T07:33:02;13.40;69.70
84393;DHT22;74592;48.846;2.358;2024-02-14T07:35:27;13.50;69.50
84393;DHT22;74592;48.846;2.358;2024-02-14T07:37:54;13.50;70.40
84393;DHT22;74592;48.846;2.358;2024-02-14T07:40:21;13.50;69.40
84393;DHT22;74592;48.846;2.358;2024-02-14T07:42:46;13.60;69.40
84393;DHT22;74592;48.846;2.358;2024-02-14T07:45:12;13.60;69.20
84393;DHT22;74592;48.846;2.358;2024-02-14T07:47:38;13.60;69.30
84393;DHT22;74592;48.846;2.358;2024-02-14T07:50:06;13.70;69.10
84393;DHT22;74592;48.846;2.358;2024-02-14T07:52:31;13.70;69.50
84393;DHT22;74592;48.846;2.358;2024-02-14T07:54:57;13.70;69.00
84393;DHT22;74592;48.846;2.358;2024-02-14T07:57:23;13.70;69.10
84393;DHT22;74592;48.846;2.358;2024-02-14T07:59:50;13.70;68.90
84393;DHT22;74592;48.846;2.358;2024-02-14T08:02:17;13.70;68.40
84393;DHT22;74592;48.846;2.358;2024-02-14T08:04:43;13.80;68.80
84393;DHT22;74592;48.846;2.358;2024-02-14T08:07:09;13.80;68.70
84393;DHT22;74592;48.846;2.358;2024-02-14T08:09:35;13.80;68.60
84393;DHT22;74592;48.846;2.358;2024-02-14T08:12:01;13.80;68.40
84393;DHT22;74592;48.846;2.358;2024-02-14T08:14:27;13.90;68.50
84393;DHT22;74592;48.846;2.358;2024-02-14T08:16:52;13.80;68.40
84393;DHT22;74592;48.846;2.358;2024-02-14T08:19:18;13.90;68.30
84393;DHT22;74592;48.846;2.358;2024-02-14T08:21:44;13.90;68.40
84393;DHT22;74592;48.846;2.358;2024-02-14T08:24:10;13.90;68.40
84393;DHT22;74592;48.846;2.358;2024-02-14T08:26:36;14.00;68.10
84393;DHT22;74592;48.846;2.358;2024-02-14T08:29:02;13.90;68.30
84393;DHT22;74592;48.846;2.358;2024-02-14T08:31:28;14.00;68.20
84393;DHT22;74592;48.846;2.358;2024-02-14T08:33:54;14.00;68.10
84393;DHT22;74592;48.846;2.358;2024-02-14T08:36:23;14.00;67.90
84393;DHT22;74592;48.846;2.358;2024-02-14T08:38:48;14.00;67.90
84393;DHT22;74592;48.846;2.358;2024-02-14T08:41:15;14.10;68.00
84393;DHT22;74592;48.846;2.358;2024-02-14T08:43:40;14.10;67.80
84393;DHT22;74592;48.846;2.358;2024-02-14T08:46:10;14.10;67.90
84393;DHT22;74592;48.846;2.358;2024-02-14T08:48:38;14.10;67.70
84393;DHT22;74592;48.846;2.358;2024-02-14T08:51:12;14.10;67.60
84393;DHT22;74592;48.846;2.358;2024-02-14T08:53:38;14.20;67.20
84393;DHT22;74592;48.846;2.358;2024-02-14T08:56:07;14.20;67.40
84393;DHT22;74592;48.846;2.358;2024-02-14T08:58:32;14.20;67.40
84393;DHT22;74592;48.846;2.358;2024-02-14T09:00:58;14.20;67.30
84393;DHT22;74592;48.846;2.358;2024-02-14T09:03:23;14.30;67.40
84393;DHT22;74592;48.846;2.358;2024-02-14T09:05:49;14.30;67.10
84393;DHT22;74592;48.846;2.358;2024-02-14T09:08:17;14.30;67.40
84393;DHT22;74592;48.846;2.358;2024-02-14T09:10:43;14.30;67.30
84393;DHT22;74592;48.846;2.358;2024-02-14T09:13:10;14.40;67.00
84393;DHT22;74592;48.846;2.358;2024-02-14T09:15:36;14.30;67.10
84393;DHT22;74592;48.846;2.358;2024-02-14T09:18:02;14.40;67.00
84393;DHT22;74592;48.846;2.358;2024-02-14T09:20:28;14.40;67.00
84393;DHT22;74592;48.846;2.358;2024-02-14T09:22:55;14.40;66.90
84393;DHT22;74592;48.846;2.358;2024-02-14T09:25:21;14.40;67.00
84393;DHT22;74592;48.846;2.358;2024-02-14T09:27:49;14.50;67.30
84393;DHT22;74592;48.846;2.358;2024-02-14T09:30:15;14.50;67.30
84393;DHT22;74592;48.846;2.358;2024-02-14T09:32:43;14.50;68.00
84393;DHT22;74592;48.846;2.358;2024-02-14T09:35:09;14.40;67.00
84393;DHT22;74592;48.846;2.358;2024-02-14T09:37:35;14.50;67.40
84393;DHT22;74592;48.846;2.358;2024-02-14T09:40:06;14.50;67.10
84393;DHT22;74592;48.846;2.358;2024-02-14T09:42:44;14.60;66.90
84393;DHT22;74592;48.846;2.358;2024-02-14T09:45:12;14.60;66.90
84393;DHT22;74592;48.846;2.358;2024-02-14T09:47:38;14.60;66.70
84393;DHT22;74592;48.846;2.358;2024-02-14T09:50:06;14.50;67.20
84393;DHT22;74592;48.846;2.358;2024-02-14T09:52:33;14.60;67.00
84393;DHT22;74592;48.846;2.358;2024-02-14T09:54:59;14.60;66.90
84393;DHT22;74592;48.846;2.358;2024-02-14T09:57:29;14.60;67.00
84393;DHT22;74592;48.846;2.358;2024-02-14T09:59:56;14.60;66.80
84393;DHT22;74592;48.846;2.358;2024-02-14T10:02:22;14.70;67.00
84393;DHT22;74592;48.846;2.358;2024-02-14T10:04:47;14.70;66.60
84393;DHT22;74592;48.846;2.358;2024-02-14T10:07:13;14.70;66.50
84393;DHT22;74592;48.846;2.358;2024-02-14T10:09:42;14.70;65.90
84393;DHT22;74592;48.846;2.358;2024-02-14T10:12:09;14.70;65.90
84393;DHT22;74592;48.846;2.358;2024-02-14T10:14:35;14.70;66.20
84393;DHT22;74592;48.846;2.358;2024-02-14T10:17:03;14.70;66.50
84393;DHT22;74592;48.846;2.358;2024-02-14T10:19:31;14.80;66.30
84393;DHT22;74592;48.846;2.358;2024-02-14T10:22:00;14.80;66.10
84393;DHT22;74592;48.846;2.358;2024-02-14T10:24:29;14.90;66.00
84393;DHT22;74592;48.846;2.358;2024-02-14T10:26:56;14.80;65.50
84393;DHT22;74592;48.846;2.358;2024-02-14T10:29:23;14.90;65.60
84393;DHT22;74592;48.846;2.358;2024-02-14T10:31:50;14.90;65.50
84393;DHT22;74592;48.846;2.358;2024-02-14T10:34:17;14.90;65.20
84393;DHT22;74592;48.846;2.358;2024-02-14T10:36:43;15.00;65.00
84393;DHT22;74592;48.846;2.358;2024-02-14T10:39:11;15.10;64.90
84393;DHT22;74592;48.846;2.358;2024-02-14T10:41:37;15.00;64.90
84393;DHT22;74592;48.846;2.358;2024-02-14T10:44:03;15.00;65.00
84393;DHT22;74592;48.846;2.358;2024-02-14T10:46:32;15.00;65.00
84393;DHT22;74592;48.846;2.358;2024-02-14T10:49:04;15.00;65.10
84393;DHT22;74592;48.846;2.358;2024-02-14T10:51:34;15.00;65.00
84393;DHT22;74592;48.846;2.358;2024-02-14T10:54:05;15.00;65.20
84393;DHT22;74592;48.846;2.358;2024-02-14T10:56:35;15.10;65.30
84393;DHT22;74592;48.846;2.358;2024-02-14T10:59:04;15.10;65.30
84393;DHT22;74592;48.846;2.358;2024-02-14T11:01:31;15.10;65.40
84393;DHT22;74592;48.846;2.358;2024-02-14T11:03:59;15.10;65.30
84393;DHT22;74592;48.846;2.358;2024-02-14T11:06:25;15.20;65.00
84393;DHT22;74592;48.846;2.358;2024-02-14T11:09:00;15.20;65.30
84393;DHT22;74592;48.846;2.358;2024-02-14T11:11:28;15.20;65.10
84393;DHT22;74592;48.846;2.358;2024-02-14T11:13:56;15.20;65.40
84393;DHT22;74592;48.846;2.358;2024-02-14T11:16:25;15.20;65.60
84393;DHT22;74592;48.846;2.358;2024-02-14T11:18:54;15.20;65.60
84393;DHT22;74592;48.846;2.358;2024-02-14T11:21:20;15.30;65.30
84393;DHT22;74592;48.846;2.358;2024-02-14T11:23:54;15.30;65.40
84393;DHT22;74592;48.846;2.358;2024-02-14T11:26:23;15.40;65.30
84393;DHT22;74592;48.846;2.358;2024-02-14T11:28:59;15.30;65.20
84393;DHT22;74592;48.846;2.358;2024-02-14T11:31:34;15.30;64.90
84393;DHT22;74592;48.846;2.358;2024-02-14T11:34:04;15.40;65.10
84393;DHT22;74592;48.846;2.358;2024-02-14T11:36:32;15.30;65.00
84393;DHT22;74592;48.846;2.358;2024-02-14T11:38:58;15.40;64.60
84393;DHT22;74592;48.846;2.358;2024-02-14T11:41:27;15.40;64.50
84393;DHT22;74592;48.846;2.358;2024-02-14T11:43:53;15.40;64.60
84393;DHT22;74592;48.846;2.358;2024-02-14T11:46:19;15.40;64.60
84393;DHT22;74592;48.846;2.358;2024-02-14T11:48:45;15.40;64.00
84393;DHT22;74592;48.846;2.358;2024-02-14T11:51:14;15.40;63.90
84393;DHT22;74592;48.846;2.358;2024-02-14T11:53:40;15.40;64.10
84393;DHT22;74592;48.846;2.358;2024-02-14T11:56:06;15.40;64.50
84393;DHT22;74592;48.846;2.358;2024-02-14T11:58:32;15.40;64.20
84393;DHT22;74592;48.846;2.358;2024-02-14T12:00:57;15.40;64.60
84393;DHT22;74592;48.846;2.358;2024-02-14T12:03:25;15.40;65.00
84393;DHT22;74592;48.846;2.358;2024-02-14T12:05:52;15.40;64.70
84393;DHT22;74592;48.846;2.358;2024-02-14T12:08:18;15.40;64.60
84393;DHT22;74592;48.846;2.358;2024-02-14T12:10:47;15.40;64.80
84393;DHT22;74592;48.846;2.358;2024-02-14T12:13:16;15.50;64.40
84393;DHT22;74592;48.846;2.358;2024-02-14T12:15:45;15.50;64.20
84393;DHT22;74592;48.846;2.358;2024-02-14T12:18:11;15.40;64.20
84393;DHT22;74592;48.846;2.358;2024-02-14T12:20:37;15.40;64.20
84393;DHT22;74592;48.846;2.358;2024-02-14T12:23:04;15.50;64.20
84393;DHT22;74592;48.846;2.358;2024-02-14T12:25:33;15.50;64.40
84393;DHT22;74592;48.846;2.358;2024-02-14T12:27:59;15.60;64.60
84393;DHT22;74592;48.846;2.358;2024-02-14T12:30:46;15.60;64.30
84393;DHT22;74592;48.846;2.358;2024-02-14T12:33:16;15.60;63.90
84393;DHT22;74592;48.846;2.358;2024-02-14T12:35:45;15.60;63.60
84393;DHT22;74592;48.846;2.358;2024-02-14T12:38:12;15.70;63.60
84393;DHT22;74592;48.846;2.358;2024-02-14T12:40:44;15.60;63.20
84393;DHT22;74592;48.846;2.358;2024-02-14T12:43:14;15.50;64.00
84393;DHT22;74592;48.846;2.358;2024-02-14T12:45:49;15.60;63.80
84393;DHT22;74592;48.846;2.358;2024-02-14T12:48:22;15.60;64.00
84393;DHT22;74592;48.846;2.358;2024-02-14T12:50:50;15.60;63.60
84393;DHT22;74592;48.846;2.358;2024-02-14T12:53:18;15.70;63.60
84393;DHT22;74592;48.846;2.358;2024-02-14T12:55:45;15.70;63.10
84393;DHT22;74592;48.846;2.358;2024-02-14T12:58:11;15.80;62.50
84393;DHT22;74592;48.846;2.358;2024-02-14T13:00:37;15.80;62.80
84393;DHT22;74592;48.846;2.358;2024-02-14T13:03:03;15.90;62.60
84393;DHT22;74592;48.846;2.358;2024-02-14T13:05:30;15.90;62.70
84393;DHT22;74592;48.846;2.358;2024-02-14T13:07:56;16.00;61.80
84393;DHT22;74592;48.846;2.358;2024-02-14T13:10:21;16.10;61.60
84393;DHT22;74592;48.846;2.358;2024-02-14T13:12:47;16.10;61.60
84393;DHT22;74592;48.846;2.358;2024-02-14T13:15:13;16.20;61.60
84393;DHT22;74592;48.846;2.358;2024-02-14T13:17:38;16.30;60.90
84393;DHT22;74592;48.846;2.358;2024-02-14T13:20:05;16.30;60.70
84393;DHT22;74592;48.846;2.358;2024-02-14T13:22:30;16.40;59.90
84393;DHT22;74592;48.846;2.358;2024-02-14T13:24:58;16.50;59.60
84393;DHT22;74592;48.846;2.358;2024-02-14T13:27:26;16.60;59.30
84393;DHT22;74592;48.846;2.358;2024-02-14T13:29:51;16.60;59.40
84393;DHT22;74592;48.846;2.358;2024-02-14T13:32:17;16.60;59.60
84393;DHT22;74592;48.846;2.358;2024-02-14T13:34:43;16.60;59.70
84393;DHT22;74592;48.846;2.358;2024-02-14T13:37:09;16.60;59.20
84393;DHT22;74592;48.846;2.358;2024-02-14T13:39:35;16.60;59.10
84393;DHT22;74592;48.846;2.358;2024-02-14T13:42:00;16.70;58.70
84393;DHT22;74592;48.846;2.358;2024-02-14T13:44:27;16.70;58.70
84393;DHT22;74592;48.846;2.358;2024-02-14T13:46:53;16.70;58.90
84393;DHT22;74592;48.846;2.358;2024-02-14T13:49:22;16.70;59.20
84393;DHT22;74592;48.846;2.358;2024-02-14T13:51:51;16.70;58.30
84393;DHT22;74592;48.846;2.358;2024-02-14T13:54:19;16.70;59.20
84393;DHT22;74592;48.846;2.358;2024-02-14T13:56:45;16.80;58.50
84393;DHT22;74592;48.846;2.358;2024-02-14T13:59:11;16.90;58.00
84393;DHT22;74592;48.846;2.358;2024-02-14T14:01:37;16.90;58.00
84393;DHT22;74592;48.846;2.358;2024-02-14T14:04:03;16.90;58.00
84393;DHT22;74592;48.846;2.358;2024-02-14T14:06:33;17.00;56.80
84393;DHT22;74592;48.846;2.358;2024-02-14T14:08:59;17.10;57.60
84393;DHT22;74592;48.846;2.358;2024-02-14T14:11:26;17.10;57.20
84393;DHT22;74592;48.846;2.358;2024-02-14T14:13:51;17.10;56.70
84393;DHT22;74592;48.846;2.358;2024-02-14T14:16:17;17.10;56.40
84393;DHT22;74592;48.846;2.358;2024-02-14T14:18:43;17.10;56.70
84393;DHT22;74592;48.846;2.358;2024-02-14T14:21:09;17.00;57.30
84393;DHT22;74592;48.846;2.358;2024-02-14T14:23:34;17.00;57.10
84393;DHT22;74592;48.846;2.358;2024-02-14T14:26:01;17.00;57.10
84393;DHT22;74592;48.846;2.358;2024-02-14T14:28:27;17.10;56.70
84393;DHT22;74592;48.846;2.358;2024-02-14T14:30:56;17.10;56.90
84393;DHT22;74592;48.846;2.358;2024-02-14T14:33:22;17.10;56.60
84393;DHT22;74592;48.846;2.358;2024-02-14T14:35:48;17.10;56.30
84393;DHT22;74592;48.846;2.358;2024-02-14T14:38:19;17.20;56.20
84393;DHT22;74592;48.846;2.358;2024-02-14T14:40:46;17.20;56.30
84393;DHT22;74592;48.846;2.358;2024-02-14T14:43:12;17.10;56.60
84393;DHT22;74592;48.846;2.358;2024-02-14T14:45:38;17.10;56.50
84393;DHT22;74592;48.846;2.358;2024-02-14T14:48:04;17.20;56.60
84393;DHT22;74592;48.846;2.358;2024-02-14T14:50:30;17.20;56.10
84393;DHT22;74592;48.846;2.358;2024-02-14T14:52:57;17.20;56.30
84393;DHT22;74592;48.846;2.358;2024-02-14T14:55:24;17.20;56.50
84393;DHT22;74592;48.846;2.358;2024-02-14T14:57:50;17.30;56.00
84393;DHT22;74592;48.846;2.358;2024-02-14T15:00:17;17.30;56.10
84393;DHT22;74592;48.846;2.358;2024-02-14T15:02:43;17.20;55.50
84393;DHT22;74592;48.846;2.358;2024-02-14T15:05:11;17.30;55.90
84393;DHT22;74592;48.846;2.358;2024-02-14T15:07:40;17.30;56.00
84393;DHT22;74592;48.846;2.358;2024-02-14T15:10:06;17.30;55.90
84393;DHT22;74592;48.846;2.358;2024-02-14T15:12:33;17.20;55.90
84393;DHT22;74592;48.846;2.358;2024-02-14T15:15:04;17.20;55.90
84393;DHT22;74592;48.846;2.358;2024-02-14T15:17:30;17.20;56.20
84393;DHT22;74592;48.846;2.358;2024-02-14T15:19:59;17.20;55.90
84393;DHT22;74592;48.846;2.358;2024-02-14T15:22:24;17.10;56.50
84393;DHT22;74592;48.846;2.358;2024-02-14T15:24:53;17.10;56.40
84393;DHT22;74592;48.846;2.358;2024-02-14T15:27:19;17.00;56.70